Time;durP1;ratioP1;P1;durP2;ratioP2;P2;SDS_P1;SDS_P2;PMS_P1;PMS_P2;Temp;Humidity;BMP_temperature;BMP_pressure;BME280_temperature;BME280_humidity;BME280_pressure;Samples;Min_cycle;Max_cycle;Signal;HPM_P1;HPM_P2
2023/12/28 00:03:09;;;;;;;2.72;1.60;;;;;;;6.05;58.80;99654.31;10511527;28;20384;-63
2023/12/28 00:08:11;;;;;;;5.30;1.70;;;;;;;6.47;58.20;99661.06;10467456;28;21122;-63
2023/12/28 00:13:13;;;;;;;2.63;1.40;;;;;;;6.81;57.02;99651.59;10489275;28;20036;-65
2023/12/28 00:18:15;;;;;;;2.78;1.55;;;;;;;7.07;56.28;99648.53;10504500;28;20036;-64
2023/12/28 00:23:20;;;;;;;2.00;1.20;;;;;;;7.34;56.69;99641.09;10518146;27;20049;-64
2023/12/28 00:28:22;;;;;;;3.30;1.42;;;;;;;7.49;55.72;99639.47;10504529;28;20400;-64
2023/12/28 00:33:24;;;;;;;2.40;1.30;;;;;;;7.71;54.94;99625.25;10506793;28;20418;-64
2023/12/28 00:38:26;;;;;;;1.95;1.10;;;;;;;7.82;53.28;99637.69;10511310;28;20048;-64
2023/12/28 00:43:27;;;;;;;5.10;1.38;;;;;;;8.04;53.64;99675.53;10508693;28;20067;-64
2023/12/28 00:48:30;;;;;;;3.53;1.75;;;;;;;8.19;53.08;99668.69;10499335;28;20052;-65
2023/12/28 00:53:32;;;;;;;2.60;1.33;;;;;;;8.36;52.51;99678.19;10514260;28;20047;-65
2023/12/28 00:58:34;;;;;;;2.20;1.27;;;;;;;8.49;53.03;99697.44;10497926;28;20054;-64
2023/12/28 01:03:36;;;;;;;2.00;1.25;;;;;;;8.53;51.48;99714.59;10511631;28;21041;-65
2023/12/28 01:08:38;;;;;;;1.60;1.27;;;;;;;8.61;51.83;99697.59;10512193;28;20048;-64
2023/12/28 01:13:40;;;;;;;2.03;1.30;;;;;;;8.68;52.25;99705.94;10515034;28;20151;-64
2023/12/28 01:18:43;;;;;;;1.90;1.40;;;;;;;8.68;51.88;99713.75;10513050;28;20059;-64
2023/12/28 01:23:47;;;;;;;2.38;1.30;;;;;;;8.73;52.23;99730.81;10513861;28;20055;-64
2023/12/28 01:28:50;;;;;;;5.13;1.35;;;;;;;8.68;52.22;99740.69;10513864;28;20394;-64
2023/12/28 01:33:52;;;;;;;2.85;1.52;;;;;;;8.68;52.90;99745.03;10493558;28;20048;-64
2023/12/28 01:38:54;;;;;;;3.45;1.48;;;;;;;8.66;53.56;99765.13;10493850;28;20511;-63
2023/12/28 01:43:56;;;;;;;1.75;1.25;;;;;;;8.67;53.79;99770.25;10510435;28;20071;-64
2023/12/28 01:48:59;;;;;;;3.50;1.27;;;;;;;8.70;53.76;99779.69;10495644;28;20129;-64
2023/12/28 01:54:01;;;;;;;3.20;1.33;;;;;;;8.60;53.76;99778.50;10494060;28;20340;-64
2023/12/28 01:59:03;;;;;;;3.63;1.63;;;;;;;8.58;53.80;99793.38;10510215;28;22127;-64
2023/12/28 02:04:06;;;;;;;2.90;1.48;;;;;;;8.57;54.22;99773.44;10511900;28;20373;-64
2023/12/28 02:09:08;;;;;;;2.35;1.40;;;;;;;8.44;55.68;99757.66;10512419;28;20059;-64
2023/12/28 02:14:10;;;;;;;2.45;1.40;;;;;;;8.33;56.69;99775.59;10527945;28;20060;-64
2023/12/28 02:19:44;;;;;;;3.00;1.70;;;;;;;8.26;57.77;99779.44;10511596;28;20056;-64
2023/12/28 02:25:09;;;;;;;2.90;1.40;;;;;;;8.17;58.49;99766.91;10490980;28;20058;-64
2023/12/28 02:30:12;;;;;;;2.63;1.50;;;;;;;8.29;58.07;99768.03;10513740;28;20048;-64
2023/12/28 02:35:20;;;;;;;2.58;1.30;;;;;;;8.17;59.05;99750.44;10512055;28;20238;-64
2023/12/28 02:40:24;;;;;;;1.95;1.15;;;;;;;8.35;58.65;99765.09;10512849;28;20101;-64
2023/12/28 02:45:26;;;;;;;3.60;1.35;;;;;;;8.42;58.59;99756.03;10496384;28;20492;-63
2023/12/28 02:50:31;;;;;;;1.48;1.15;;;;;;;8.38;59.03;99767.56;10510926;28;21777;-64
2023/12/28 02:55:35;;;;;;;2.53;1.48;;;;;;;8.44;58.92;99757.66;10513067;28;20507;-63
2023/12/28 03:00:37;;;;;;;2.70;1.40;;;;;;;8.47;59.08;99769.66;10493095;28;20212;-64
2023/12/28 03:05:39;;;;;;;1.95;1.27;;;;;;;8.44;59.29;99768.06;10478840;28;21208;-63
2023/12/28 03:10:42;;;;;;;1.55;1.10;;;;;;;8.49;59.45;99776.47;10499207;28;20466;-63
2023/12/28 03:15:44;;;;;;;2.03;1.30;;;;;;;8.48;59.72;99777.41;10532420;27;21129;-63
2023/12/28 03:20:46;;;;;;;2.53;1.50;;;;;;;8.54;59.85;99768.41;10483616;28;20079;-64
2023/12/28 03:25:48;;;;;;;2.28;1.50;;;;;;;8.47;60.42;99773.09;10500318;28;20052;-64
2023/12/28 03:30:51;;;;;;;1.67;1.13;;;;;;;8.57;60.18;99794.28;10519334;28;20047;-64
2023/12/28 03:35:54;;;;;;;3.40;1.20;;;;;;;8.59;60.40;99813.31;10516534;28;20526;-64
2023/12/28 03:40:56;;;;;;;1.50;1.13;;;;;;;8.59;60.49;99795.91;10516753;28;20523;-64
2023/12/28 03:45:58;;;;;;;1.60;1.10;;;;;;;8.72;60.46;99798.69;10518604;28;20135;-64
2023/12/28 03:51:00;;;;;;;1.67;1.20;;;;;;;8.63;60.88;99786.16;10534278;27;20048;-63
2023/12/28 03:56:02;;;;;;;1.40;1.02;;;;;;;8.67;61.06;99803.31;10518050;28;20441;-63
2023/12/28 04:01:04;;;;;;;2.20;1.30;;;;;;;8.69;61.08;99812.72;10500149;28;20043;-63
2023/12/28 04:06:07;;;;;;;1.77;1.15;;;;;;;8.69;61.40;99822.31;10496987;28;20048;-63
2023/12/28 04:11:09;;;;;;;4.20;1.60;;;;;;;8.71;61.42;99836.09;10493117;28;20591;-63
2023/12/28 04:16:14;;;;;;;2.20;1.40;;;;;;;8.57;62.08;99851.63;10500025;28;20047;-63
2023/12/28 04:21:17;;;;;;;1.58;1.00;;;;;;;8.79;61.43;99860.03;10501109;28;20044;-63
2023/12/28 04:26:20;;;;;;;2.33;1.40;;;;;;;8.85;61.30;99834.44;10516607;28;20051;-63
2023/12/28 04:31:22;;;;;;;1.20;1.05;;;;;;;8.92;61.31;99841.94;10517676;28;20037;-63
2023/12/28 04:36:24;;;;;;;1.63;1.10;;;;;;;8.84;61.47;99842.38;10514909;28;20210;-64
2023/12/28 04:41:26;;;;;;;1.17;1.02;;;;;;;8.85;61.47;99836.25;10533593;27;20552;-63
2023/12/28 04:46:28;;;;;;;4.95;1.63;;;;;;;8.83;61.59;99823.25;10494785;28;20041;-64
2023/12/28 04:51:30;;;;;;;1.30;1.10;;;;;;;8.74;61.82;99821.16;10512747;28;20135;-64
2023/12/28 04:56:32;;;;;;;3.03;1.40;;;;;;;8.66;62.16;99819.88;10531007;27;20652;-63
2023/12/28 05:01:40;;;;;;;2.88;1.40;;;;;;;8.66;62.27;99809.47;10496568;28;20066;-63
2023/12/28 05:06:42;;;;;;;1.63;1.05;;;;;;;8.65;62.20;99819.03;10513488;28;20502;-63
2023/12/28 05:11:44;;;;;;;2.10;1.33;;;;;;;8.50;62.63;99816.41;10531968;28;20075;-63
2023/12/28 05:16:46;;;;;;;2.10;1.27;;;;;;;8.52;62.41;99818.03;10513812;28;20046;-64
2023/12/28 05:21:49;;;;;;;4.72;1.27;;;;;;;8.45;62.53;99815.81;10514631;28;20139;-63
2023/12/28 05:26:51;;;;;;;3.17;1.20;;;;;;;8.35;62.66;99817.22;10515878;28;20094;-66
2023/12/28 05:31:53;;;;;;;2.30;1.45;;;;;;;8.20;62.91;99821.44;10515071;28;20104;-63
2023/12/28 05:36:55;;;;;;;1.30;1.17;;;;;;;8.09;63.29;99825.50;10496458;28;20142;-63
2023/12/28 05:41:57;;;;;;;2.28;1.30;;;;;;;8.15;62.98;99818.25;10514924;28;20040;-63
2023/12/28 05:46:59;;;;;;;1.88;1.10;;;;;;;8.16;62.83;99829.53;10495336;28;20047;-64
2023/12/28 05:52:01;;;;;;;2.45;1.25;;;;;;;8.11;62.97;99821.09;10512710;28;20046;-63
2023/12/28 05:57:03;;;;;;;1.15;1.00;;;;;;;8.03;63.05;99827.53;10514295;28;20075;-63
2023/12/28 06:02:05;;;;;;;1.08;0.88;;;;;;;8.03;63.03;99824.91;10479303;28;20044;-64
2023/12/28 06:07:07;;;;;;;1.10;1.00;;;;;;;8.06;63.06;99821.28;10512084;28;20047;-64
2023/12/28 06:12:09;;;;;;;1.10;1.00;;;;;;;8.01;63.18;99812.88;10514051;28;20056;-63
2023/12/28 06:17:11;;;;;;;2.33;1.10;;;;;;;8.07;63.12;99814.31;10514582;28;20097;-63
2023/12/28 06:22:13;;;;;;;1.65;1.08;;;;;;;8.11;63.02;99821.94;10496237;28;20135;-63
2023/12/28 06:27:15;;;;;;;2.45;1.20;;;;;;;8.11;63.14;99832.34;10512740;28;20044;-63
2023/12/28 06:32:17;;;;;;;3.15;1.58;;;;;;;8.16;63.04;99840.75;10512222;28;20511;-63
2023/12/28 06:37:19;;;;;;;1.48;1.05;;;;;;;8.30;62.87;99848.75;10511844;28;20593;-63
2023/12/28 06:42:21;;;;;;;2.55;1.52;;;;;;;8.30;62.71;99846.13;10492980;28;20602;-63
2023/12/28 06:47:23;;;;;;;2.03;1.42;;;;;;;8.29;62.65;99849.66;10517439;28;20063;-63
2023/12/28 06:52:25;;;;;;;1.77;1.20;;;;;;;8.27;62.64;99843.69;10519430;28;20067;-63
2023/12/28 06:57:27;;;;;;;1.63;0.90;;;;;;;8.27;62.50;99848.88;10519242;28;20044;-64
2023/12/28 07:02:29;;;;;;;2.05;1.20;;;;;;;8.28;62.39;99836.72;10520090;28;20101;-63
2023/12/28 07:07:31;;;;;;;1.90;1.20;;;;;;;8.18;62.54;99838.91;10508791;28;20109;-64
2023/12/28 07:12:33;;;;;;;1.67;1.10;;;;;;;8.16;62.60;99845.97;10477875;28;20507;-65
2023/12/28 07:17:35;;;;;;;2.35;1.45;;;;;;;8.15;62.36;99848.66;10515203;28;20126;-64
2023/12/28 07:22:38;;;;;;;2.28;1.70;;;;;;;8.15;62.43;99851.28;10515220;28;20055;-64
2023/12/28 07:27:41;;;;;;;1.50;1.30;;;;;;;8.11;62.46;99862.75;10515564;28;20340;-64
2023/12/28 07:32:44;;;;;;;2.85;1.35;;;;;;;8.09;62.32;99861.97;10512964;28;20412;-63
2023/12/28 07:37:47;;;;;;;1.98;1.10;;;;;;;8.11;62.32;99876.63;10515228;28;20139;-63
2023/12/28 07:42:49;;;;;;;5.20;1.40;;;;;;;8.20;62.27;99873.56;10514686;28;20495;-66
2023/12/28 07:47:51;;;;;;;2.42;1.20;;;;;;;8.24;62.00;99875.09;10514386;28;20509;-63
2023/12/28 07:52:54;;;;;;;1.02;0.93;;;;;;;8.24;62.00;99864.66;10513237;28;20044;-63
2023/12/28 07:57:56;;;;;;;1.30;1.00;;;;;;;8.24;62.02;99874.25;10513408;28;20462;-63
2023/12/28 08:02:59;;;;;;;1.90;1.10;;;;;;;8.26;61.88;99875.03;10512102;28;21093;-63
2023/12/28 08:08:02;;;;;;;1.67;1.05;;;;;;;8.26;61.87;99872.41;10489656;28;20051;-62
2023/12/28 08:13:04;;;;;;;10.52;4.18;;;;;;;8.27;61.86;99872.34;10512912;28;20086;-63
2023/12/28 08:18:06;;;;;;;3.55;1.88;;;;;;;8.28;61.69;99875.78;10514140;28;20039;-63
2023/12/28 08:23:09;;;;;;;3.72;1.17;;;;;;;8.27;61.80;99884.50;10510470;28;20075;-62
2023/12/28 08:28:19;;;;;;;1.97;1.03;;;;;;;8.26;61.72;99898.47;10510464;28;20101;-62
2023/12/28 08:33:21;;;;;;;2.53;1.20;;;;;;;8.24;61.73;99888.09;10509202;28;20462;-63
2023/12/28 08:38:23;;;;;;;3.53;1.50;;;;;;;8.26;61.79;99888.88;10504256;28;20044;-62
2023/12/28 08:43:25;;;;;;;2.58;1.27;;;;;;;8.33;61.45;99898.06;10504041;28;20849;-63
2023/12/28 08:48:27;;;;;;;3.25;1.33;;;;;;;8.37;61.32;99896.16;10492496;28;20040;-70
2023/12/28 08:53:30;;;;;;;2.03;1.25;;;;;;;8.42;61.16;99899.38;10523624;28;20058;-70
2023/12/28 08:58:32;;;;;;;2.00;1.10;;;;;;;8.44;61.01;99893.16;10492160;28;20040;-68
2023/12/28 09:03:34;;;;;;;2.45;1.30;;;;;;;8.46;61.00;99903.50;10507923;28;20046;-69
2023/12/28 09:08:36;;;;;;;2.30;1.17;;;;;;;8.44;60.89;99897.53;10508562;28;20145;-69
2023/12/28 09:13:39;;;;;;;2.30;0.90;;;;;;;8.49;60.87;99912.00;10510887;28;20527;-70
2023/12/28 09:18:42;;;;;;;1.23;0.93;;;;;;;8.51;60.76;99914.53;10492340;28;20484;-70
2023/12/28 09:23:44;;;;;;;3.00;0.88;;;;;;;8.48;60.72;99920.75;10506609;28;20044;-70
2023/12/28 09:28:46;;;;;;;2.25;1.10;;;;;;;8.56;60.77;99929.03;10508451;28;20055;-70
2023/12/28 09:33:48;;;;;;;8.68;1.50;;;;;;;8.61;60.59;99923.56;10507813;28;20127;-70
2023/12/28 09:38:51;;;;;;;1.55;1.02;;;;;;;8.69;60.58;99934.41;10506932;28;20048;-70
2023/12/28 09:43:57;;;;;;;1.80;1.20;;;;;;;8.71;60.23;99927.38;10506338;28;20411;-70
2023/12/28 09:48:59;;;;;;;1.67;0.95;;;;;;;8.73;60.26;99922.91;10506857;28;20090;-70
2023/12/28 09:54:03;;;;;;;1.77;1.00;;;;;;;8.72;59.97;99919.47;10506929;28;20126;-70
2023/12/28 09:59:06;;;;;;;2.65;0.93;;;;;;;8.82;59.34;99915.47;10503957;28;20055;-68
2023/12/28 10:04:09;;;;;;;5.57;2.25;;;;;;;9.09;59.02;99912.31;10503986;28;20366;-69
2023/12/28 10:09:12;;;;;;;1.25;0.90;;;;;;;9.30;58.69;99905.94;10497406;28;20134;-70
2023/12/28 10:14:14;;;;;;;2.17;1.15;;;;;;;9.34;58.57;99910.88;10503592;28;20038;-69
2023/12/28 10:19:21;;;;;;;4.00;1.25;;;;;;;9.51;57.10;99928.22;10503842;28;20059;-68
2023/12/28 10:24:23;;;;;;;1.05;0.90;;;;;;;9.83;57.70;99921.25;10493372;28;20052;-70
2023/12/28 10:29:26;;;;;;;1.15;0.80;;;;;;;9.99;56.82;99920.25;10511245;28;20056;-70
2023/12/28 10:34:28;;;;;;;0.80;0.80;;;;;;;9.88;55.19;99938.34;10512875;28;20123;-70
2023/12/28 10:39:34;;;;;;;1.88;0.80;;;;;;;10.14;55.39;99944.66;10492170;28;20048;-70
2023/12/28 10:44:40;;;;;;;0.70;0.70;;;;;;;10.33;55.18;99947.91;10514132;28;20105;-70
2023/12/28 10:49:44;;;;;;;2.33;0.88;;;;;;;10.43;54.88;99949.06;10510636;28;20048;-70
2023/12/28 10:55:25;;;;;;;3.30;1.30;;;;;;;10.53;53.58;99942.34;10510310;28;20424;-71
2023/12/28 11:00:33;;;;;;;2.67;1.70;;;;;;;10.69;53.79;99940.50;10488081;28;20077;-70
2023/12/28 11:05:37;;;;;;;1.85;1.00;;;;;;;10.88;54.46;99937.63;10512373;28;20368;-69
2023/12/28 11:10:40;;;;;;;3.08;1.52;;;;;;;11.09;54.06;99924.09;10471266;28;20133;-70
2023/12/28 11:15:42;;;;;;;0.90;0.70;;;;;;;11.30;53.92;99917.53;10512056;28;20044;-70
2023/12/28 11:20:45;;;;;;;2.15;0.90;;;;;;;11.22;53.11;99909.31;10511289;28;20058;-70
2023/12/28 11:25:47;;;;;;;1.48;0.80;;;;;;;11.14;53.42;99905.47;10505880;28;20052;-70
2023/12/28 11:30:50;;;;;;;5.95;2.05;;;;;;;11.03;52.13;99905.28;10509468;28;20464;-70
2023/12/28 11:35:53;;;;;;;2.15;1.10;;;;;;;11.21;52.71;99893.69;10509868;28;20048;-70
2023/12/28 11:40:57;;;;;;;2.45;1.20;;;;;;;11.44;52.32;99892.25;10490040;28;20058;-70
2023/12/28 11:46:00;;;;;;;2.63;1.25;;;;;;;11.41;51.63;99893.28;10474359;28;20044;-70
2023/12/28 11:51:03;;;;;;;2.58;1.60;;;;;;;11.28;51.94;99887.13;10524045;28;20052;-69
2023/12/28 11:56:09;;;;;;;0.93;0.75;;;;;;;11.24;51.34;99873.41;10490524;28;20093;-70
2023/12/28 12:01:11;;;;;;;0.98;0.75;;;;;;;11.28;51.29;99864.41;10508710;28;20089;-70
2023/12/28 12:06:13;;;;;;;1.13;0.85;;;;;;;11.42;51.05;99857.47;10509015;28;20412;-69
2023/12/28 12:11:18;;;;;;;3.15;1.45;;;;;;;11.41;49.78;99854.00;10508039;28;20507;-70
2023/12/28 12:16:20;;;;;;;3.35;1.02;;;;;;;11.30;50.46;99833.75;10509077;28;20066;-69
2023/12/28 12:21:23;;;;;;;5.05;0.80;;;;;;;11.11;50.43;99843.69;10490417;28;20101;-69
2023/12/28 12:26:26;;;;;;;2.75;1.60;;;;;;;10.60;49.23;99839.06;10510393;28;20040;-70
2023/12/28 12:31:28;;;;;;;4.75;1.17;;;;;;;10.83;49.30;99835.84;10473396;28;20530;-69
2023/12/28 12:36:30;;;;;;;2.72;0.93;;;;;;;10.89;50.28;99832.84;10508176;28;20121;-69
2023/12/28 12:41:33;;;;;;;1.40;0.90;;;;;;;10.95;49.35;99829.84;10507785;28;20488;-71
2023/12/28 12:46:35;;;;;;;3.13;1.20;;;;;;;11.01;50.02;99818.19;10494608;28;20178;-71
2023/12/28 12:51:38;;;;;;;3.58;1.17;;;;;;;11.06;50.39;99814.38;10476756;28;20586;-71
2023/12/28 12:56:45;;;;;;;3.63;0.90;;;;;;;11.39;49.64;99800.03;10505812;28;20499;-71
2023/12/28 13:01:48;;;;;;;1.00;0.90;;;;;;;11.24;49.46;99802.72;10507168;28;20247;-71
2023/12/28 13:06:51;;;;;;;3.67;0.88;;;;;;;11.03;49.14;99793.56;10502814;28;20067;-71
2023/12/28 13:11:53;;;;;;;2.65;1.00;;;;;;;11.17;49.77;99784.91;10503562;28;20086;-71
2023/12/28 13:16:55;;;;;;;5.85;0.90;;;;;;;11.07;49.08;99768.09;10505445;28;20055;-72
2023/12/28 13:21:59;;;;;;;2.35;0.95;;;;;;;11.08;49.49;99781.09;10504926;28;20055;-71
2023/12/28 13:27:01;;;;;;;3.00;1.58;;;;;;;11.07;49.75;99768.91;10483902;28;20089;-72
2023/12/28 13:32:04;;;;;;;2.92;0.80;;;;;;;11.02;49.78;99772.75;10505392;28;20058;-72
2023/12/28 13:37:06;;;;;;;1.98;1.08;;;;;;;11.06;49.72;99772.50;10483452;28;20112;-71
2023/12/28 13:42:08;;;;;;;3.17;1.83;;;;;;;11.31;49.42;99777.00;10502742;28;20201;-71
2023/12/28 13:47:10;;;;;;;2.20;0.68;;;;;;;11.28;49.21;99770.16;10503377;28;20438;-72
2023/12/28 13:52:12;;;;;;;1.25;0.90;;;;;;;11.28;49.49;99769.31;10501765;28;20039;-71
2023/12/28 13:57:15;;;;;;;0.55;0.55;;;;;;;11.08;49.65;99767.16;10501941;28;20051;-72
2023/12/28 14:02:18;;;;;;;4.82;1.17;;;;;;;11.31;49.80;99761.28;10500992;28;20119;-72
2023/12/28 14:07:20;;;;;;;0.65;0.65;;;;;;;11.17;49.61;99770.00;10503655;28;20043;-72
2023/12/28 14:12:22;;;;;;;3.55;1.02;;;;;;;11.10;50.12;99757.44;10484051;28;20047;-71
2023/12/28 14:17:24;;;;;;;1.63;0.70;;;;;;;10.95;50.19;99758.41;10503819;28;20712;-72
2023/12/28 14:22:26;;;;;;;1.90;0.93;;;;;;;11.02;50.30;99755.28;10483701;28;20136;-71
2023/12/28 14:27:30;;;;;;;1.73;0.90;;;;;;;11.04;50.16;99750.81;10498212;28;20048;-71
2023/12/28 14:32:32;;;;;;;1.63;1.00;;;;;;;11.01;50.43;99753.59;10501044;28;20714;-71
2023/12/28 14:37:34;;;;;;;3.03;1.00;;;;;;;10.92;50.58;99754.19;10480039;28;20051;-71
2023/12/28 14:42:37;;;;;;;0.77;0.73;;;;;;;10.83;50.73;99760.00;10486434;28;20068;-71
2023/12/28 14:47:39;;;;;;;2.35;0.90;;;;;;;10.83;50.90;99754.75;10501173;28;20043;-71
2023/12/28 14:52:42;;;;;;;2.17;1.00;;;;;;;10.62;50.89;99753.53;10501980;28;20621;-71
2023/12/28 14:57:45;;;;;;;0.88;0.88;;;;;;;10.58;51.71;99754.66;10498743;28;20055;-71
2023/12/28 15:02:47;;;;;;;3.50;1.27;;;;;;;10.63;51.64;99764.78;10503647;28;20058;-71
2023/12/28 15:07:49;;;;;;;0.50;0.50;;;;;;;10.70;51.78;99761.72;10508895;28;20040;-70
2023/12/28 15:12:51;;;;;;;1.35;0.75;;;;;;;10.60;51.87;99776.31;10514991;28;20097;-70
2023/12/28 15:17:53;;;;;;;1.55;0.90;;;;;;;10.54;52.09;99776.69;10510815;28;20596;-71
2023/12/28 15:22:56;;;;;;;1.05;0.80;;;;;;;10.44;52.26;99765.94;10495877;28;20511;-70
2023/12/28 15:27:58;;;;;;;1.95;1.15;;;;;;;10.29;52.48;99763.44;10508772;28;20052;-69
2023/12/28 15:33:01;;;;;;;2.05;0.80;;;;;;;10.13;52.84;99750.47;10509312;28;20415;-70
2023/12/28 15:38:04;;;;;;;2.50;1.00;;;;;;;9.98;52.91;99737.47;10512265;28;20040;-70
2023/12/28 15:43:06;;;;;;;0.98;0.88;;;;;;;9.87;53.22;99734.69;10493295;28;20450;-70
2023/12/28 15:48:08;;;;;;;0.68;0.68;;;;;;;9.89;53.13;99743.28;10510215;28;20610;-70
2023/12/28 15:53:10;;;;;;;1.38;0.88;;;;;;;9.75;53.39;99740.66;10506050;28;20056;-71
2023/12/28 15:58:12;;;;;;;1.35;0.77;;;;;;;9.61;53.70;99757.91;10494664;28;20051;-71
2023/12/28 16:03:14;;;;;;;2.00;0.77;;;;;;;9.63;53.76;99750.84;10510276;28;21311;-68
2023/12/28 16:08:16;;;;;;;3.92;0.85;;;;;;;9.58;53.81;99744.22;10512120;28;20064;-67
2023/12/28 16:13:18;;;;;;;3.83;1.60;;;;;;;9.58;53.80;99754.66;10493646;28;20082;-68
2023/12/28 16:18:21;;;;;;;2.15;1.00;;;;;;;9.74;53.63;99750.25;10507830;28;20112;-68
2023/12/28 16:23:25;;;;;;;0.63;0.63;;;;;;;9.79;53.09;99745.56;10511558;28;20063;-67
2023/12/28 16:28:27;;;;;;;3.38;1.10;;;;;;;9.80;53.45;99743.81;10491539;28;20117;-69
2023/12/28 16:33:29;;;;;;;1.15;0.80;;;;;;;9.72;53.37;99744.28;10493176;28;20052;-68
2023/12/28 16:38:31;;;;;;;3.40;1.00;;;;;;;9.59;53.57;99741.50;10492083;28;20055;-70
2023/12/28 16:43:36;;;;;;;3.08;1.20;;;;;;;9.45;53.85;99736.25;10510213;28;20040;-69
2023/12/28 16:48:39;;;;;;;0.77;0.73;;;;;;;9.38;54.07;99757.59;10478633;28;20194;-70
2023/12/28 16:53:41;;;;;;;2.80;0.82;;;;;;;9.31;54.31;99736.22;10481595;28;20121;-70
2023/12/28 16:58:43;;;;;;;1.30;0.70;;;;;;;9.29;54.39;99743.28;10513931;28;20051;-68
2023/12/28 17:03:46;;;;;;;1.02;0.65;;;;;;;9.22;54.40;99736.72;10516178;28;20044;-70
2023/12/28 17:08:49;;;;;;;1.23;0.90;;;;;;;9.16;54.87;99744.06;10513984;28;20145;-70
2023/12/28 17:13:51;;;;;;;1.15;0.90;;;;;;;9.18;54.78;99731.78;10509424;28;20136;-70
2023/12/28 17:18:53;;;;;;;2.03;1.45;;;;;;;9.15;54.95;99739.78;10480219;28;20048;-69
2023/12/28 17:23:58;;;;;;;1.88;0.80;;;;;;;9.05;55.25;99743.84;10516523;28;20048;-69
2023/12/28 17:29:05;;;;;;;2.85;1.40;;;;;;;9.04;55.40;99756.03;10512850;28;20048;-69
2023/12/28 17:34:08;;;;;;;4.00;1.50;;;;;;;9.12;55.22;99745.16;10515730;28;20050;-68
2023/12/28 17:39:11;;;;;;;1.63;0.90;;;;;;;9.19;55.08;99743.91;10514899;28;20064;-69
2023/12/28 17:44:30;;;;;;;1.23;1.00;;;;;;;9.07;54.86;99737.63;10514885;28;21110;-69
2023/12/28 17:49:32;;;;;;;1.00;0.90;;;;;;;9.16;54.59;99742.28;10510960;28;20048;-68
2023/12/28 17:54:34;;;;;;;1.40;1.17;;;;;;;9.18;54.44;99745.66;10493076;28;20044;-69
2023/12/28 17:59:37;;;;;;;1.10;1.00;;;;;;;9.12;54.61;99738.19;10509331;28;20085;-69
2023/12/28 18:04:38;;;;;;;2.70;1.55;;;;;;;8.97;54.42;99735.59;10479818;28;20040;-69
2023/12/28 18:09:41;;;;;;;2.80;1.08;;;;;;;9.05;54.51;99742.06;10484274;28;20052;-69
2023/12/28 18:14:43;;;;;;;2.55;1.65;;;;;;;8.99;54.61;99729.38;10500498;28;20040;-69
2023/12/28 18:19:45;;;;;;;1.70;1.00;;;;;;;8.91;54.90;99730.72;10491886;28;20130;-69
2023/12/28 18:24:49;;;;;;;1.33;0.90;;;;;;;8.89;54.82;99741.25;10491995;28;20043;-69
2023/12/28 18:29:53;;;;;;;1.20;0.80;;;;;;;8.84;54.97;99735.44;10507560;28;20147;-69
2023/12/28 18:34:55;;;;;;;2.90;1.10;;;;;;;8.66;55.32;99745.13;10492555;28;20047;-69
2023/12/28 18:39:57;;;;;;;2.17;1.10;;;;;;;8.76;55.23;99754.13;10493578;28;20598;-69
2023/12/28 18:45:00;;;;;;;1.35;0.98;;;;;;;8.77;55.37;99749.75;10499512;28;20055;-70
2023/12/28 18:50:02;;;;;;;2.15;1.30;;;;;;;8.86;55.45;99754.44;10497959;28;20032;-69
2023/12/28 18:55:05;;;;;;;1.85;1.30;;;;;;;8.87;55.62;99745.72;10517010;28;20072;-69
2023/12/28 19:00:08;;;;;;;1.88;1.10;;;;;;;8.85;55.79;99755.41;10530944;28;20071;-69
2023/12/28 19:05:10;;;;;;;1.98;1.17;;;;;;;8.74;55.95;99757.75;10481313;28;20044;-68
2023/12/28 19:10:13;;;;;;;2.03;0.95;;;;;;;8.66;56.50;99759.94;10513396;28;20048;-69
2023/12/28 19:15:15;;;;;;;2.13;1.40;;;;;;;8.76;56.38;99761.94;10519811;28;20112;-69
2023/12/28 19:20:19;;;;;;;1.83;1.08;;;;;;;8.78;56.18;99756.66;10515315;28;20144;-68
2023/12/28 19:25:21;;;;;;;2.42;1.08;;;;;;;8.70;56.39;99759.69;10516495;28;20055;-69
2023/12/28 19:30:23;;;;;;;5.85;2.38;;;;;;;8.73;56.34;99741.25;10516925;28;20898;-68
2023/12/28 19:35:25;;;;;;;3.30;1.85;;;;;;;8.60;56.66;99747.22;10494136;28;20055;-68
2023/12/28 19:40:28;;;;;;;2.75;1.25;;;;;;;8.66;56.63;99741.69;10514754;28;20105;-68
2023/12/28 19:45:30;;;;;;;2.25;1.42;;;;;;;8.63;56.66;99741.84;10511633;28;20036;-68
2023/12/28 19:50:32;;;;;;;1.15;0.95;;;;;;;8.60;56.63;99729.81;10516093;28;20036;-68
2023/12/28 19:55:34;;;;;;;1.33;0.90;;;;;;;8.63;56.50;99726.19;10482083;28;20051;-68
2023/12/28 20:00:38;;;;;;;1.50;1.20;;;;;;;8.55;56.79;99728.38;10516926;28;20117;-68
2023/12/28 20:05:40;;;;;;;1.67;1.00;;;;;;;8.53;56.90;99727.63;10497024;28;20048;-68
2023/12/28 20:10:42;;;;;;;1.45;1.10;;;;;;;8.54;56.92;99721.50;10498813;28;20415;-67
2023/12/28 20:15:46;;;;;;;1.00;0.88;;;;;;;8.47;57.13;99733.16;10517048;28;20051;-68
2023/12/28 20:20:51;;;;;;;1.33;0.90;;;;;;;8.54;57.05;99721.50;10496289;28;20058;-68
2023/12/28 20:25:53;;;;;;;1.20;0.98;;;;;;;8.55;57.05;99738.81;10513215;28;20534;-67
2023/12/28 20:30:54;;;;;;;0.98;0.90;;;;;;;8.55;57.17;99733.59;10515746;28;20067;-68
2023/12/28 20:35:57;;;;;;;1.30;0.80;;;;;;;8.56;56.99;99724.88;10514227;28;20099;-69
2023/12/28 20:41:01;;;;;;;1.80;1.25;;;;;;;8.51;57.55;99727.72;10494418;28;20078;-68
2023/12/28 20:46:03;;;;;;;1.13;0.90;;;;;;;8.36;57.98;99727.72;10492865;28;20036;-68
2023/12/28 20:51:07;;;;;;;2.08;0.90;;;;;;;8.48;57.62;99724.44;10524272;27;20087;-68
2023/12/28 20:56:09;;;;;;;0.80;0.80;;;;;;;8.44;57.71;99723.78;10495561;28;20622;-67
2023/12/28 21:01:11;;;;;;;1.35;0.90;;;;;;;8.38;57.41;99711.06;10514015;28;20044;-68
2023/12/28 21:06:14;;;;;;;0.77;0.70;;;;;;;8.31;57.79;99714.94;10511802;28;20044;-68
2023/12/28 21:11:16;;;;;;;0.50;0.50;;;;;;;8.27;57.94;99707.34;10511957;28;20151;-69
2023/12/28 21:16:19;;;;;;;1.40;0.90;;;;;;;8.29;57.88;99710.72;10512708;28;20044;-69
2023/12/28 21:21:21;;;;;;;1.05;0.80;;;;;;;8.38;57.78;99710.22;10512200;28;20048;-69
2023/12/28 21:26:23;;;;;;;1.15;0.70;;;;;;;8.46;57.59;99695.88;10528782;28;20084;-68
2023/12/28 21:31:27;;;;;;;0.68;0.60;;;;;;;8.39;57.73;99707.53;10458830;28;20103;-68
2023/12/28 21:36:29;;;;;;;0.60;0.60;;;;;;;8.46;57.87;99710.66;10495137;28;20052;-68
2023/12/28 21:41:31;;;;;;;0.50;0.50;;;;;;;8.50;57.47;99702.59;10476180;28;20077;-68
2023/12/28 21:46:34;;;;;;;1.13;0.50;;;;;;;8.47;57.61;99701.91;10487429;28;20074;-68
2023/12/28 21:51:37;;;;;;;0.82;0.60;;;;;;;8.41;57.85;99704.84;10506354;28;20048;-68
2023/12/28 21:56:39;;;;;;;0.65;0.60;;;;;;;8.40;57.76;99693.59;10513368;28;20059;-68
2023/12/28 22:01:41;;;;;;;0.70;0.70;;;;;;;8.44;57.85;99707.28;10493327;28;20117;-68
2023/12/28 22:06:43;;;;;;;0.60;0.60;;;;;;;8.35;58.35;99707.78;10509862;28;20083;-68
2023/12/28 22:11:45;;;;;;;0.65;0.65;;;;;;;8.43;58.07;99705.59;10511365;28;20165;-68
2023/12/28 22:16:49;;;;;;;0.45;0.45;;;;;;;8.41;58.38;99691.81;10510805;28;20044;-68
2023/12/28 22:21:51;;;;;;;1.25;0.60;;;;;;;8.39;58.36;99693.66;10493106;28;20491;-67
2023/12/28 22:26:53;;;;;;;0.73;0.65;;;;;;;8.40;58.41;99709.22;10493689;28;20450;-67
2023/12/28 22:31:55;;;;;;;1.23;0.85;;;;;;;8.43;58.41;99708.19;10490943;28;20121;-68
2023/12/28 22:36:58;;;;;;;0.70;0.70;;;;;;;8.46;58.19;99708.03;10487720;28;20048;-68
2023/12/28 22:42:00;;;;;;;0.70;0.70;;;;;;;8.48;58.47;99707.03;10476747;28;20584;-68
2023/12/28 22:47:02;;;;;;;0.77;0.50;;;;;;;8.62;57.78;99714.94;10493455;28;20082;-67
2023/12/28 22:52:04;;;;;;;0.63;0.55;;;;;;;8.75;57.32;99715.94;10525506;28;20242;-67
2023/12/28 22:57:10;;;;;;;1.00;0.55;;;;;;;8.92;57.00;99706.31;10511026;28;20131;-67
2023/12/28 23:02:12;;;;;;;0.50;0.50;;;;;;;8.95;57.06;99711.38;10509728;28;20044;-68
2023/12/28 23:07:16;;;;;;;0.50;0.50;;;;;;;8.89;57.05;99691.72;10509741;28;20048;-68
2023/12/28 23:12:18;;;;;;;0.88;0.68;;;;;;;8.88;56.92;99697.84;10494946;28;20404;-68
2023/12/28 23:17:20;;;;;;;1.30;0.70;;;;;;;8.90;56.78;99690.75;10513108;28;20116;-68
2023/12/28 23:22:22;;;;;;;0.88;0.63;;;;;;;8.73;56.25;99701.28;10513446;28;20036;-67
2023/12/28 23:27:24;;;;;;;0.43;0.43;;;;;;;8.80;56.35;99703.50;10511584;28;20507;-68
2023/12/28 23:32:26;;;;;;;1.00;0.80;;;;;;;8.79;56.34;99685.34;10500610;28;20040;-68
2023/12/28 23:37:28;;;;;;;2.28;1.02;;;;;;;8.74;56.34;99693.41;10520694;28;20043;-68
2023/12/28 23:42:30;;;;;;;1.27;0.70;;;;;;;8.64;56.26;99680.97;10538071;27;20504;-69